Grayville, Illinois
Current Conditions -  °F | °C
As of 6:15 PM on Thursday 27 Nov 2014 (Local Time) from KCUL Reporting Station
Clear Clear  
Wind Chill: 21°   Ceiling: Unl
Heat Index: 26°   Visibility: 10mi
Dew Point: 24°   Wind: 5mph
Humidity: 90%   Direction: 280°W
Pressure: 30.48"   Gusts: NA
Location:  38.26°N, 88°W
Report Text: KCUL 280015Z AUTO 28004KT 10SM CLR M03/M04 A3048 RMK AO2 T10311045
Loading
Personal Weather Stations






























Interactive Weather Map New forecast layout! Learn more

10-Day Weather Forecast

Advertisements
Track Severe Weather on mobile